createdAt,value
2019-05-14T00:00:32.310Z,13.70
2019-05-14T00:03:02.488Z,13.70
2019-05-14T00:05:32.642Z,13.60
2019-05-14T00:08:02.476Z,13.60
2019-05-14T00:10:32.388Z,13.60
2019-05-14T00:13:02.157Z,13.60
2019-05-14T00:15:32.369Z,13.60
2019-05-14T00:18:02.200Z,13.60
2019-05-14T00:20:32.064Z,13.50
2019-05-14T00:23:01.875Z,13.50
2019-05-14T00:25:31.737Z,13.40
2019-05-14T00:28:02.461Z,13.40
2019-05-14T00:30:32.807Z,13.40
2019-05-14T00:33:02.596Z,13.30
2019-05-14T00:35:35.582Z,13.30
2019-05-14T00:38:03.819Z,13.20
2019-05-14T00:40:34.213Z,13.20
2019-05-14T00:43:04.019Z,13.10
2019-05-14T00:45:33.857Z,13.10
2019-05-14T00:48:04.196Z,13.10
2019-05-14T00:50:34.010Z,13.00
2019-05-14T00:53:04.201Z,13.00
2019-05-14T00:55:34.579Z,13.00
2019-05-14T00:58:04.961Z,13.00
2019-05-14T01:00:35.564Z,12.90
2019-05-14T01:03:05.383Z,12.90
2019-05-14T01:05:35.147Z,12.90
2019-05-14T01:08:04.963Z,12.80
2019-05-14T01:10:34.780Z,12.80
2019-05-14T01:13:05.683Z,12.80
2019-05-14T01:15:35.850Z,12.70
2019-05-14T01:18:05.680Z,12.70
2019-05-14T01:20:35.508Z,12.70
2019-05-14T01:23:05.348Z,12.60
2019-05-14T01:25:35.606Z,12.50
2019-05-14T01:28:05.464Z,12.50
2019-05-14T01:30:35.780Z,12.40
2019-05-14T01:33:05.659Z,12.30
2019-05-14T01:35:35.575Z,12.20
2019-05-14T01:38:05.837Z,12.20
2019-05-14T01:40:35.627Z,12.10
2019-05-14T01:43:08.056Z,12.10
2019-05-14T01:45:37.915Z,12.10
2019-05-14T01:48:07.773Z,12.00
2019-05-14T01:50:37.574Z,12.00
2019-05-14T01:53:07.446Z,12.00
2019-05-14T01:55:37.806Z,12.00
2019-05-14T01:58:07.664Z,12.00
2019-05-14T02:00:37.469Z,12.00
2019-05-14T02:03:07.301Z,11.90
2019-05-14T02:05:37.441Z,11.90
2019-05-14T02:08:07.415Z,12.00
2019-05-14T02:10:37.191Z,12.00
2019-05-14T02:13:07.044Z,11.90
2019-05-14T02:15:40.034Z,11.90
2019-05-14T02:18:08.322Z,11.90
2019-05-14T02:20:38.175Z,11.90
2019-05-14T02:23:08.862Z,11.90
2019-05-14T02:25:41.155Z,11.80
2019-05-14T02:30:51.357Z,11.80
2019-05-14T02:33:14.384Z,11.80
2019-05-14T02:35:44.580Z,11.80
2019-05-14T02:38:14.399Z,11.80
2019-05-14T02:40:44.671Z,11.80
2019-05-14T02:43:14.507Z,11.80
2019-05-14T02:46:00.460Z,11.70
2019-05-14T02:48:16.332Z,11.70
2019-05-14T02:50:49.104Z,11.70
2019-05-14T02:53:19.837Z,11.60
2019-05-14T02:55:49.731Z,11.60
2019-05-14T02:58:20.941Z,11.60
2019-05-14T03:00:51.102Z,11.60
2019-05-14T03:03:20.928Z,11.60
2019-05-14T03:05:51.273Z,11.50
2019-05-14T03:08:21.537Z,11.50
2019-05-14T03:10:51.383Z,11.50
2019-05-14T03:13:21.210Z,11.50
2019-05-14T03:15:51.054Z,11.40
2019-05-14T03:18:21.390Z,11.40
2019-05-14T03:20:51.175Z,11.40
2019-05-14T03:23:23.081Z,11.40
2019-05-14T03:25:53.753Z,11.40
2019-05-14T03:28:24.559Z,11.30
2019-05-14T03:30:54.419Z,11.30
2019-05-14T03:33:24.821Z,11.30
2019-05-14T03:36:01.123Z,11.30
2019-05-14T03:38:29.343Z,11.30
2019-05-14T03:41:00.246Z,11.20
2019-05-14T03:43:29.978Z,11.20
2019-05-14T03:45:59.927Z,11.20
2019-05-14T03:48:30.009Z,11.20
2019-05-14T03:51:01.089Z,11.20
2019-05-14T03:53:30.895Z,11.20
2019-05-14T03:56:01.524Z,11.10
2019-05-14T03:58:32.367Z,11.10
2019-05-14T04:01:02.806Z,11.10
2019-05-14T04:03:33.279Z,11.10
2019-05-14T04:06:03.695Z,11.10
2019-05-14T04:08:33.883Z,11.10
2019-05-14T04:11:04.243Z,11.10
2019-05-14T04:13:35.019Z,11.10
2019-05-14T04:16:05.509Z,11.00
2019-05-14T04:18:40.513Z,11.00
2019-05-14T04:21:10.368Z,11.00
2019-05-14T04:23:40.372Z,11.10
2019-05-14T04:26:10.374Z,11.10
2019-05-14T04:28:40.557Z,11.10
2019-05-14T04:31:10.387Z,11.10
2019-05-14T04:33:40.218Z,11.10
2019-05-14T04:36:10.564Z,11.10
2019-05-14T04:38:41.326Z,11.10
2019-05-14T04:41:11.200Z,11.20
2019-05-14T04:43:41.074Z,11.10
2019-05-14T04:46:11.051Z,11.20
2019-05-14T04:48:43.943Z,11.20
2019-05-14T04:51:13.321Z,11.20
2019-05-14T04:53:43.639Z,11.20
2019-05-14T04:56:13.438Z,11.20
2019-05-14T04:58:43.686Z,11.20
2019-05-14T05:01:13.501Z,11.20
2019-05-14T05:03:43.345Z,11.20
2019-05-14T05:06:13.181Z,11.20
2019-05-14T05:08:43.464Z,11.20
2019-05-14T05:11:13.255Z,11.20
2019-05-14T05:13:43.081Z,11.20
2019-05-14T05:16:12.899Z,11.20
2019-05-14T05:18:42.746Z,11.20
2019-05-14T05:21:13.094Z,11.20
2019-05-14T05:23:42.951Z,11.20
2019-05-14T05:26:12.780Z,11.20
2019-05-14T05:28:42.622Z,11.20
2019-05-14T05:31:12.440Z,11.20
2019-05-14T05:33:42.839Z,11.10
2019-05-14T05:36:12.626Z,11.10
2019-05-14T05:38:42.488Z,11.10
2019-05-14T05:41:12.286Z,11.10
2019-05-14T05:43:42.125Z,11.10
2019-05-14T05:46:11.954Z,11.10
2019-05-14T05:48:41.816Z,11.10
2019-05-14T05:51:11.635Z,11.10
2019-05-14T05:53:41.512Z,11.10
2019-05-14T05:56:11.348Z,11.10
2019-05-14T05:58:41.234Z,11.10
2019-05-14T06:01:11.060Z,11.10
2019-05-14T06:03:40.911Z,11.10
2019-05-14T06:06:13.415Z,11.20
2019-05-14T06:08:42.257Z,11.20
2019-05-14T06:11:12.551Z,11.20
2019-05-14T06:13:42.405Z,11.20
2019-05-14T06:16:12.236Z,11.20
2019-05-14T06:18:43.052Z,11.30
2019-05-14T06:21:13.351Z,11.30
2019-05-14T06:23:43.202Z,11.30
2019-05-14T06:26:13.969Z,11.30
2019-05-14T06:28:43.881Z,11.40
2019-05-14T06:31:14.584Z,11.40
2019-05-14T06:33:44.750Z,11.40
2019-05-14T06:36:14.989Z,11.50
2019-05-14T06:38:45.399Z,11.50
2019-05-14T06:41:15.233Z,11.50
2019-05-14T06:43:45.026Z,11.60
2019-05-14T06:46:15.015Z,11.60
2019-05-14T06:48:48.372Z,11.60
2019-05-14T06:51:20.067Z,11.70
2019-05-14T06:53:50.055Z,11.70
2019-05-14T06:56:21.832Z,11.70
2019-05-14T06:58:52.813Z,11.80
2019-05-14T07:01:23.177Z,11.90
2019-05-14T07:03:53.980Z,11.90
2019-05-14T07:06:23.828Z,11.90
2019-05-14T07:08:53.645Z,12.00
2019-05-14T07:11:23.465Z,12.00
2019-05-14T07:13:53.264Z,12.10
2019-05-14T07:16:23.502Z,12.10
2019-05-14T07:18:54.304Z,12.20
2019-05-14T07:21:24.310Z,12.20
2019-05-14T07:23:54.533Z,12.30
2019-05-14T07:26:24.376Z,12.30
2019-05-14T07:28:54.196Z,12.30
2019-05-14T07:31:24.074Z,12.40
2019-05-14T07:33:53.880Z,12.40
2019-05-14T07:36:23.767Z,12.40
2019-05-14T07:38:56.327Z,12.50
2019-05-14T07:41:28.282Z,12.50
2019-05-14T07:43:58.598Z,12.50
2019-05-14T07:46:28.666Z,12.60
2019-05-14T07:49:07.334Z,12.70
2019-05-14T07:51:29.894Z,12.70
2019-05-14T07:53:59.665Z,12.70
2019-05-14T07:56:30.088Z,12.80
2019-05-14T07:59:01.966Z,12.80
2019-05-14T08:01:31.790Z,12.90
2019-05-14T08:04:02.617Z,12.90
2019-05-14T08:06:32.994Z,12.90
2019-05-14T08:09:04.636Z,13.00
2019-05-14T08:11:34.513Z,13.10
2019-05-14T08:14:04.290Z,13.10
2019-05-14T08:16:34.584Z,13.20
2019-05-14T08:19:06.207Z,13.20
2019-05-14T08:21:35.960Z,13.30
2019-05-14T08:24:08.824Z,13.30
2019-05-14T08:26:38.442Z,13.40
2019-05-14T08:29:09.647Z,13.40
2019-05-14T08:31:40.017Z,13.50
2019-05-14T08:34:09.800Z,13.50
2019-05-14T08:36:39.626Z,13.60
2019-05-14T08:39:09.458Z,13.60
2019-05-14T08:41:39.266Z,13.70
2019-05-14T08:44:10.644Z,13.70
2019-05-14T08:46:40.928Z,13.80
2019-05-14T08:49:11.111Z,13.90
2019-05-14T08:51:41.223Z,13.90
2019-05-14T08:54:11.644Z,14.00
2019-05-14T08:56:41.478Z,14.00
2019-05-14T08:59:11.306Z,14.10
2019-05-14T09:01:57.455Z,14.20
2019-05-14T09:04:13.411Z,14.20
2019-05-14T09:06:43.220Z,14.30
2019-05-14T09:09:13.602Z,14.40
2019-05-14T09:11:45.714Z,14.40
2019-05-14T09:14:15.481Z,14.40
2019-05-14T09:16:47.735Z,14.50
2019-05-14T09:19:19.079Z,14.50
2019-05-14T09:21:49.516Z,14.50
2019-05-14T09:24:19.676Z,14.50
2019-05-14T09:26:49.506Z,14.60
2019-05-14T09:29:25.566Z,14.60
2019-05-14T09:31:50.803Z,14.60
2019-05-14T09:34:21.154Z,14.60
2019-05-14T09:36:50.937Z,14.70
2019-05-14T09:39:20.773Z,14.70
2019-05-14T09:41:50.613Z,14.70
2019-05-14T09:44:20.800Z,14.80
2019-05-14T09:46:51.268Z,14.80
2019-05-14T09:49:21.099Z,14.90
2019-05-14T09:51:51.965Z,14.90
2019-05-14T09:54:21.821Z,15.00
2019-05-14T09:56:51.604Z,15.00
2019-05-14T09:59:21.472Z,15.10
2019-05-14T10:01:51.350Z,15.20
2019-05-14T10:04:21.210Z,15.30
2019-05-14T10:06:51.577Z,15.40
2019-05-14T10:09:21.417Z,15.50
2019-05-14T10:11:51.751Z,15.60
2019-05-14T10:14:22.350Z,15.70
2019-05-14T10:16:52.162Z,15.80
2019-05-14T10:19:22.495Z,15.90
2019-05-14T10:21:52.316Z,16.00
2019-05-14T10:24:22.624Z,16.10
2019-05-14T10:26:52.851Z,16.20
2019-05-14T10:29:23.299Z,16.30
2019-05-14T10:31:53.113Z,16.40
2019-05-14T10:34:22.971Z,16.40
2019-05-14T10:36:52.783Z,16.50
2019-05-14T10:39:22.666Z,16.50
2019-05-14T10:41:52.465Z,16.60
2019-05-14T10:44:22.327Z,16.60
2019-05-14T10:46:52.149Z,16.70
2019-05-14T10:49:23.621Z,16.70
2019-05-14T10:51:53.391Z,16.80
2019-05-14T10:54:25.755Z,16.90
2019-05-14T10:56:54.998Z,17.00
2019-05-14T10:59:24.786Z,17.20
2019-05-14T11:01:56.922Z,17.30
2019-05-14T11:04:28.574Z,17.40
2019-05-14T11:06:59.849Z,17.50
2019-05-14T11:09:29.622Z,17.60
2019-05-14T11:12:00.069Z,17.70
2019-05-14T11:14:31.829Z,17.80
2019-05-14T11:17:01.681Z,17.90
2019-05-14T11:19:31.435Z,18.00
2019-05-14T11:22:01.249Z,18.10
2019-05-14T11:24:31.132Z,18.20
2019-05-14T11:27:01.902Z,18.30
2019-05-14T11:29:33.255Z,18.40
2019-05-14T11:32:03.151Z,18.40
2019-05-14T11:34:33.360Z,18.50
2019-05-14T11:37:03.725Z,18.50
2019-05-14T11:39:34.026Z,18.40
2019-05-14T11:42:04.355Z,18.40
2019-05-14T11:44:34.179Z,18.30
2019-05-14T11:47:04.548Z,18.20
2019-05-14T11:49:34.941Z,18.10
2019-05-14T11:52:10.522Z,18.10
2019-05-14T11:54:40.918Z,18.10
2019-05-14T11:57:11.648Z,18.20
2019-05-14T11:59:40.176Z,18.30
2019-05-14T12:02:10.485Z,18.40
2019-05-14T12:04:40.693Z,18.50
2019-05-14T12:07:11.025Z,18.70
2019-05-14T12:09:41.642Z,18.80
2019-05-14T12:12:12.740Z,19.00
2019-05-14T12:14:44.034Z,19.00
2019-05-14T12:17:14.587Z,19.10
2019-05-14T12:19:44.809Z,19.20
2019-05-14T12:22:15.229Z,19.20
2019-05-14T12:24:45.087Z,19.10
2019-05-14T12:27:15.886Z,19.10
2019-05-14T12:29:49.499Z,19.10
2019-05-14T12:32:18.869Z,19.10
2019-05-14T12:34:49.480Z,19.10
2019-05-14T12:37:19.700Z,19.30
2019-05-14T12:39:49.902Z,19.40
2019-05-14T12:42:19.744Z,19.50
2019-05-14T12:44:50.572Z,19.70
2019-05-14T12:47:20.410Z,19.80
2019-05-14T12:49:50.513Z,19.90
2019-05-14T12:52:25.834Z,20.00
2019-05-14T12:54:53.241Z,20.10
2019-05-14T12:57:25.772Z,20.10
2019-05-14T12:59:55.046Z,20.00
2019-05-14T13:02:24.873Z,19.90
2019-05-14T13:05:00.142Z,19.80
2019-05-14T13:07:30.046Z,19.70
2019-05-14T13:09:59.889Z,19.70
2019-05-14T13:12:30.728Z,19.60
2019-05-14T13:15:00.600Z,19.60
2019-05-14T13:17:30.466Z,19.60
2019-05-14T13:20:00.385Z,19.70
2019-05-14T13:22:39.297Z,19.70
2019-05-14T13:25:02.591Z,19.70
2019-05-14T13:27:32.992Z,19.80
2019-05-14T13:30:08.900Z,19.70
2019-05-14T13:32:39.305Z,19.70
2019-05-14T13:35:13.606Z,19.80
2019-05-14T13:37:41.705Z,19.80
2019-05-14T13:40:13.993Z,19.70
2019-05-14T13:42:44.977Z,19.80
2019-05-14T13:45:15.058Z,19.80
2019-05-14T13:47:44.876Z,20.00
2019-05-14T13:50:15.562Z,20.20
2019-05-14T13:52:59.731Z,20.40
2019-05-14T13:55:19.414Z,20.70
2019-05-14T13:57:49.017Z,20.90
2019-05-14T14:00:20.182Z,21.20
2019-05-14T14:02:50.095Z,21.50
2019-05-14T14:05:21.660Z,21.70
2019-05-14T14:07:51.455Z,21.80
2019-05-14T14:10:21.687Z,21.80
2019-05-14T14:12:51.932Z,21.80
2019-05-14T14:15:21.796Z,21.70
2019-05-14T14:17:51.936Z,21.60
2019-05-14T14:20:21.805Z,21.40
2019-05-14T14:22:58.608Z,21.20
2019-05-14T14:25:29.757Z,21.00
2019-05-14T14:28:00.525Z,20.80
2019-05-14T14:30:30.560Z,20.60
2019-05-14T14:33:00.903Z,20.40
2019-05-14T14:35:31.161Z,20.30
2019-05-14T14:38:01.007Z,20.10
2019-05-14T14:40:31.820Z,20.00
2019-05-14T14:43:01.953Z,20.00
2019-05-14T14:45:31.968Z,19.90
2019-05-14T14:48:02.058Z,19.90
2019-05-14T14:50:32.029Z,20.00
2019-05-14T14:53:02.261Z,20.10
2019-05-14T14:55:32.141Z,20.30
2019-05-14T14:58:02.403Z,20.40
2019-05-14T15:00:33.404Z,20.40
2019-05-14T15:03:10.082Z,20.40
2019-05-14T15:05:40.052Z,20.40
2019-05-14T15:08:10.494Z,20.30
2019-05-14T15:10:40.507Z,20.20
2019-05-14T15:13:10.421Z,20.10
2019-05-14T15:15:40.253Z,20.00
2019-05-14T15:18:14.037Z,19.90
2019-05-14T15:20:43.462Z,19.90
2019-05-14T15:23:13.255Z,19.90
2019-05-14T15:25:43.059Z,20.00
2019-05-14T15:28:12.860Z,20.10
2019-05-14T15:30:42.723Z,20.30
2019-05-14T15:33:12.545Z,20.60
2019-05-14T15:35:42.332Z,20.80
2019-05-14T15:38:13.308Z,21.10
2019-05-14T15:40:43.110Z,21.40
2019-05-14T15:43:13.097Z,21.60
2019-05-14T15:45:43.354Z,21.90
2019-05-14T15:48:13.155Z,22.10
2019-05-14T15:50:42.948Z,22.40
2019-05-14T15:53:13.246Z,22.60
2019-05-14T15:55:44.228Z,22.90
2019-05-14T15:58:14.031Z,23.10
2019-05-14T16:00:44.194Z,23.20
2019-05-14T16:03:14.050Z,23.30
2019-05-14T16:05:44.244Z,23.30
2019-05-14T16:08:15.049Z,23.20
2019-05-14T16:10:45.194Z,23.10
2019-05-14T16:13:14.987Z,22.90
2019-05-14T16:15:44.811Z,22.70
2019-05-14T16:18:18.576Z,22.60
2019-05-14T16:20:46.228Z,22.40
2019-05-14T16:23:18.617Z,22.20
2019-05-14T16:25:48.391Z,22.00
2019-05-14T16:28:19.580Z,21.80
2019-05-14T16:30:50.162Z,21.60
2019-05-14T16:33:20.478Z,21.40
2019-05-14T16:35:50.663Z,21.20
2019-05-14T16:38:23.021Z,21.00
2019-05-14T16:40:52.707Z,20.90
2019-05-14T16:43:23.109Z,20.70
2019-05-14T16:45:53.874Z,20.60
2019-05-14T16:48:23.835Z,20.50
2019-05-14T16:50:53.694Z,20.40
2019-05-14T16:53:24.071Z,20.30
2019-05-14T16:55:54.458Z,20.10
2019-05-14T16:58:25.369Z,20.10
2019-05-14T17:00:55.164Z,20.00
2019-05-14T17:03:25.045Z,19.90
2019-05-14T17:05:54.938Z,19.80
2019-05-14T17:08:28.296Z,19.70
2019-05-14T17:10:59.074Z,19.50
2019-05-14T17:13:29.117Z,19.40
2019-05-14T17:15:59.823Z,19.20
2019-05-14T17:18:29.661Z,19.00
2019-05-14T17:20:59.596Z,18.90
2019-05-14T17:23:30.402Z,18.70
2019-05-14T17:26:00.348Z,18.60
2019-05-14T17:28:30.228Z,18.40
2019-05-14T17:31:00.143Z,18.40
2019-05-14T17:33:30.467Z,18.30
2019-05-14T17:36:00.326Z,18.20
2019-05-14T17:38:30.149Z,18.10
2019-05-14T17:41:00.576Z,18.10
2019-05-14T17:43:30.816Z,18.00
2019-05-14T17:46:01.757Z,18.00
2019-05-14T17:48:32.094Z,17.90
2019-05-14T17:51:02.028Z,17.90
2019-05-14T17:53:33.175Z,17.80
2019-05-14T17:56:03.008Z,17.80
2019-05-14T17:58:32.860Z,17.70
2019-05-14T18:01:02.721Z,17.70
2019-05-14T18:03:32.510Z,17.70
2019-05-14T18:06:02.365Z,17.60
2019-05-14T18:08:32.243Z,17.60
2019-05-14T18:11:02.095Z,17.60
2019-05-14T18:13:32.862Z,17.50
2019-05-14T18:16:02.720Z,17.50
2019-05-14T18:18:32.516Z,17.40
2019-05-14T18:21:02.457Z,17.40
2019-05-14T18:23:32.244Z,17.40
2019-05-14T18:26:08.395Z,17.30
2019-05-14T18:28:33.610Z,17.20
2019-05-14T18:31:03.914Z,17.20
2019-05-14T18:33:34.168Z,17.10
2019-05-14T18:36:04.661Z,17.10
2019-05-14T18:38:34.932Z,17.00
2019-05-14T18:41:04.842Z,17.00
2019-05-14T18:43:35.109Z,16.90
2019-05-14T18:46:08.292Z,16.90
2019-05-14T18:48:38.190Z,16.80
2019-05-14T18:51:08.987Z,16.80
2019-05-14T18:53:39.727Z,16.80
2019-05-14T18:56:20.210Z,16.70
2019-05-14T18:58:41.812Z,16.70
2019-05-14T19:01:11.633Z,16.60
2019-05-14T19:03:41.418Z,16.50
2019-05-14T19:06:11.390Z,16.50
2019-05-14T19:08:41.270Z,16.40
2019-05-14T19:11:12.303Z,16.40
2019-05-14T19:13:42.144Z,16.30
2019-05-14T19:16:11.913Z,16.30
2019-05-14T19:18:42.238Z,16.20
2019-05-14T19:21:12.088Z,16.10
2019-05-14T19:23:45.140Z,16.10
2019-05-14T19:26:14.295Z,16.00
2019-05-14T19:28:44.178Z,16.00
2019-05-14T19:31:14.639Z,15.90
2019-05-14T19:33:45.019Z,15.90
2019-05-14T19:36:15.430Z,15.90
2019-05-14T19:38:47.987Z,15.80
2019-05-14T19:41:20.967Z,15.80
2019-05-14T19:43:50.210Z,15.80
2019-05-14T19:46:22.030Z,15.70
2019-05-14T19:48:52.430Z,15.60
2019-05-14T19:51:22.478Z,15.60
2019-05-14T19:53:52.648Z,15.50
2019-05-14T19:56:23.714Z,15.50
2019-05-14T19:58:54.635Z,15.40
2019-05-14T20:01:25.184Z,15.40
2019-05-14T20:03:55.176Z,15.40
2019-05-14T20:06:24.975Z,15.30
2019-05-14T20:08:54.860Z,15.20
2019-05-14T20:11:25.911Z,15.20
2019-05-14T20:13:56.219Z,15.20
2019-05-14T20:16:28.409Z,15.10
2019-05-14T20:18:58.628Z,15.00
2019-05-14T20:21:28.873Z,15.00
2019-05-14T20:23:59.202Z,14.90
2019-05-14T20:26:29.515Z,14.90
2019-05-14T20:28:59.710Z,14.90
2019-05-14T20:31:29.792Z,14.90
2019-05-14T20:33:59.853Z,14.80
2019-05-14T20:36:30.071Z,14.80
2019-05-14T20:39:00.439Z,14.80
2019-05-14T20:41:30.334Z,14.70
2019-05-14T20:44:00.677Z,14.70
2019-05-14T20:46:31.393Z,14.60
2019-05-14T20:49:01.255Z,14.60
2019-05-14T20:51:31.018Z,14.50
2019-05-14T20:54:00.872Z,14.50
2019-05-14T20:56:34.094Z,14.40
2019-05-14T20:59:03.922Z,14.40
2019-05-14T21:01:33.771Z,14.40
2019-05-14T21:04:03.577Z,14.30
2019-05-14T21:06:33.348Z,14.30
2019-05-14T21:09:03.357Z,14.30
2019-05-14T21:11:33.093Z,14.30
2019-05-14T21:14:02.890Z,14.30
2019-05-14T21:16:32.671Z,14.30
2019-05-14T21:19:02.456Z,14.20
2019-05-14T21:21:32.266Z,14.20
2019-05-14T21:24:02.119Z,14.20
2019-05-14T21:26:32.027Z,14.10
2019-05-14T21:29:01.888Z,14.10
2019-05-14T21:31:31.745Z,14.10
2019-05-14T21:34:01.525Z,14.10
2019-05-14T21:36:31.410Z,14.00
2019-05-14T21:39:01.175Z,14.00
2019-05-14T21:41:30.980Z,14.00
2019-05-14T21:44:01.436Z,14.00
2019-05-14T21:46:31.670Z,13.90
2019-05-14T21:49:01.725Z,13.90
2019-05-14T21:51:31.542Z,13.80
2019-05-14T21:54:01.307Z,13.80
2019-05-14T21:56:31.104Z,13.70
2019-05-14T21:59:01.432Z,13.70
2019-05-14T22:01:31.390Z,13.70
2019-05-14T22:04:01.170Z,13.60
2019-05-14T22:06:30.972Z,13.60
2019-05-14T22:09:00.728Z,13.50
2019-05-14T22:11:30.545Z,13.50
2019-05-14T22:14:00.316Z,13.50
2019-05-14T22:16:30.113Z,13.40
2019-05-14T22:18:59.922Z,13.40
2019-05-14T22:21:29.678Z,13.40
2019-05-14T22:23:59.516Z,13.30
2019-05-14T22:26:29.287Z,13.30
2019-05-14T22:28:59.117Z,13.30
2019-05-14T22:31:29.107Z,13.20
2019-05-14T22:33:59.848Z,13.10
2019-05-14T22:36:29.969Z,13.10
2019-05-14T22:39:00.477Z,13.10
2019-05-14T22:41:30.238Z,13.00
2019-05-14T22:44:00.171Z,13.00
2019-05-14T22:46:30.397Z,13.00
2019-05-14T22:49:00.218Z,12.90
2019-05-14T22:51:33.102Z,12.90
2019-05-14T22:54:02.014Z,12.90
2019-05-14T22:56:31.769Z,12.80
2019-05-14T22:59:01.591Z,12.80
2019-05-14T23:01:31.839Z,12.70
2019-05-14T23:04:02.226Z,12.70
2019-05-14T23:06:31.996Z,12.60
2019-05-14T23:09:01.799Z,12.60
2019-05-14T23:11:32.037Z,12.60
2019-05-14T23:14:01.874Z,12.50
2019-05-14T23:16:37.838Z,12.50
2019-05-14T23:19:03.556Z,12.50
2019-05-14T23:21:33.351Z,12.40
2019-05-14T23:24:03.571Z,12.40
2019-05-14T23:26:33.371Z,12.40
2019-05-14T23:29:03.188Z,12.40
2019-05-14T23:31:33.867Z,12.30
2019-05-14T23:34:03.693Z,12.30
2019-05-14T23:36:33.946Z,12.30
2019-05-14T23:39:04.603Z,12.30
2019-05-14T23:41:34.904Z,12.30
2019-05-14T23:44:04.723Z,12.20
2019-05-14T23:46:34.937Z,12.20
2019-05-14T23:49:05.309Z,12.20
2019-05-14T23:51:35.070Z,12.20
2019-05-14T23:54:04.895Z,12.10
2019-05-14T23:56:34.669Z,12.10
2019-05-14T23:59:04.977Z,12.10
